Time;durP1;ratioP1;P1;durP2;ratioP2;P2;SDS_P1;SDS_P2;PMS_P1;PMS_P2;Temp;Humidity;BMP_temperature;BMP_pressure;BME280_temperature;BME280_humidity;BME280_pressure;Samples;Min_cycle;Max_cycle;Signal;HPM_P1;HPM_P2
2023/06/16 00:01:40;;;;;;;5.63;4.32;;;13.00;99.90;;;;;;5134967;27;20035;-67
2023/06/16 00:04:06;;;;;;;8.63;4.50;;;12.90;99.90;;;;;;5135037;27;20034;-67
2023/06/16 00:06:32;;;;;;;4.50;4.03;;;13.00;99.90;;;;;;5134954;27;20119;-67
2023/06/16 00:09:00;;;;;;;4.35;3.95;;;13.00;99.90;;;;;;5134936;27;20039;-67
2023/06/16 00:11:27;;;;;;;7.07;4.75;;;12.90;99.90;;;;;;5134805;27;20041;-67
2023/06/16 00:13:53;;;;;;;6.50;4.22;;;12.90;99.90;;;;;;5134913;27;20034;-67
2023/06/16 00:16:19;;;;;;;4.15;3.75;;;12.80;99.90;;;;;;5135214;27;20023;-67
2023/06/16 00:18:46;;;;;;;4.95;4.10;;;12.80;99.90;;;;;;5116093;27;20464;-67
2023/06/16 00:21:19;;;;;;;7.78;4.63;;;12.80;99.90;;;;;;5116652;28;20051;-67
2023/06/16 00:23:45;;;;;;;6.75;5.03;;;12.80;99.90;;;;;;5134857;28;20092;-67
2023/06/16 00:26:11;;;;;;;7.13;4.05;;;12.70;99.90;;;;;;5134876;28;20027;-67
2023/06/16 00:28:38;;;;;;;5.38;4.07;;;12.70;99.90;;;;;;5134551;28;20042;-67
2023/06/16 00:31:04;;;;;;;7.75;4.10;;;;;;;;;;5134590;28;20066;-67
2023/06/16 00:33:30;;;;;;;8.75;4.43;;;12.70;99.90;;;;;;5115793;28;20031;-67
2023/06/16 00:35:56;;;;;;;4.60;3.80;;;12.60;99.90;;;;;;5134293;28;20037;-66
2023/06/16 00:38:21;;;;;;;6.28;4.32;;;12.60;99.90;;;;;;5134511;28;20419;-67
2023/06/16 00:40:47;;;;;;;5.82;4.03;;;12.60;99.90;;;;;;5134532;27;20035;-67
2023/06/16 00:43:13;;;;;;;5.07;4.57;;;12.50;99.90;;;;;;5137380;27;20039;-67
2023/06/16 00:45:38;;;;;;;6.32;4.50;;;12.50;99.90;;;;;;5138526;27;20392;-67
2023/06/16 00:48:05;;;;;;;5.63;4.10;;;12.50;99.90;;;;;;5138581;27;20042;-67
2023/06/16 00:50:31;;;;;;;4.97;3.88;;;12.40;99.90;;;;;;5138709;27;20069;-67
2023/06/16 00:52:57;;;;;;;4.40;3.80;;;12.30;99.90;;;;;;5138587;27;20034;-67
2023/06/16 00:55:23;;;;;;;4.60;4.10;;;12.30;99.90;;;;;;5138475;27;20028;-67
2023/06/16 00:57:49;;;;;;;5.15;3.75;;;12.20;99.90;;;;;;5138439;27;20027;-67
2023/06/16 01:00:15;;;;;;;5.15;3.90;;;12.20;99.90;;;;;;5138391;27;20046;-67
2023/06/16 01:02:44;;;;;;;5.85;4.40;;;12.20;99.90;;;;;;5119555;27;20039;-67
2023/06/16 01:05:11;;;;;;;5.03;4.53;;;12.10;99.90;;;;;;5138451;27;20429;-67
2023/06/16 01:08:05;;;;;;;5.78;3.95;;;12.10;99.90;;;;;;5138364;27;20035;-67
2023/06/16 01:10:51;;;;;;;5.00;4.05;;;12.10;99.90;;;;;;5138305;27;20122;-67
2023/06/16 01:13:35;;;;;;;5.10;4.30;;;12.10;99.90;;;;;;5138243;27;20046;-67
2023/06/16 01:16:03;;;;;;;5.88;4.75;;;12.10;99.90;;;;;;5138705;27;20035;-67
2023/06/16 01:18:31;;;;;;;5.68;4.63;;;12.10;99.90;;;;;;5137936;27;20102;-67
2023/06/16 01:21:19;;;;;;;4.68;4.13;;;12.10;99.90;;;;;;5119100;27;20062;-67
2023/06/16 01:23:52;;;;;;;7.82;4.75;;;12.10;99.90;;;;;;5138157;27;20058;-66
2023/06/16 01:26:22;;;;;;;8.48;4.30;;;12.10;99.90;;;;;;5138006;27;20031;-66
2023/06/16 01:28:49;;;;;;;6.40;4.45;;;12.00;99.90;;;;;;5138218;27;20035;-67
2023/06/16 01:31:17;;;;;;;5.28;4.30;;;12.00;99.90;;;;;;5119618;27;20395;-67
2023/06/16 01:33:45;;;;;;;9.40;5.40;;;12.00;99.90;;;;;;5137915;27;20115;-67
2023/06/16 01:36:12;;;;;;;7.53;4.38;;;12.00;99.90;;;;;;5119343;27;20035;-67
2023/06/16 01:38:39;;;;;;;6.97;4.35;;;12.00;99.90;;;;;;5138030;27;20070;-67
2023/06/16 01:41:06;;;;;;;5.88;3.97;;;12.00;99.90;;;;;;5137545;27;20058;-67
2023/06/16 01:43:33;;;;;;;4.95;4.00;;;12.00;99.90;;;;;;5137404;27;20066;-67
2023/06/16 01:45:59;;;;;;;5.35;4.50;;;12.00;99.90;;;;;;5137371;27;20031;-67
2023/06/16 01:48:26;;;;;;;7.28;4.90;;;12.00;99.90;;;;;;5119170;27;20118;-67
2023/06/16 01:50:52;;;;;;;4.78;4.22;;;12.00;99.90;;;;;;5137712;27;20059;-67
2023/06/16 01:53:17;;;;;;;7.53;4.20;;;11.90;99.90;;;;;;5137109;27;20031;-67
2023/06/16 01:55:51;;;;;;;5.35;4.60;;;11.90;99.90;;;;;;5137372;27;20373;-67
2023/06/16 01:58:19;;;;;;;6.68;4.28;;;11.90;99.90;;;;;;5137478;27;20062;-67
2023/06/16 02:01:04;;;;;;;5.03;3.95;;;11.90;99.90;;;;;;5118918;27;20380;-67
2023/06/16 02:03:39;;;;;;;4.72;3.97;;;11.80;99.90;;;;;;5137319;27;20032;-67
2023/06/16 02:06:08;;;;;;;5.70;4.20;;;11.80;99.90;;;;;;5137231;27;20060;-67
2023/06/16 02:08:36;;;;;;;6.97;4.15;;;11.80;99.90;;;;;;5137474;27;20054;-67
2023/06/16 02:11:02;;;;;;;5.32;4.47;;;11.70;99.90;;;;;;5136986;27;20031;-67
2023/06/16 02:13:29;;;;;;;6.45;4.60;;;11.70;99.90;;;;;;5136898;27;20460;-67
2023/06/16 02:15:55;;;;;;;6.68;4.88;;;11.70;99.90;;;;;;5137031;27;20039;-67
2023/06/16 02:18:27;;;;;;;4.85;4.35;;;11.70;99.90;;;;;;5136754;27;20066;-67
2023/06/16 02:20:56;;;;;;;6.35;4.47;;;11.60;99.90;;;;;;5136674;27;20404;-67
2023/06/16 02:23:22;;;;;;;7.57;4.32;;;11.60;99.90;;;;;;5136271;28;20070;-67
2023/06/16 02:25:47;;;;;;;6.05;4.38;;;11.60;99.90;;;;;;5135528;28;20039;-67
2023/06/16 02:28:13;;;;;;;5.47;4.30;;;11.50;99.90;;;;;;5135766;28;20031;-67
2023/06/16 02:30:38;;;;;;;8.93;4.88;;;11.50;99.90;;;;;;5135681;28;20031;-67
2023/06/16 02:33:05;;;;;;;5.95;5.05;;;11.50;99.90;;;;;;5135871;28;20460;-67
2023/06/16 02:35:31;;;;;;;7.25;4.70;;;11.50;99.90;;;;;;5135588;28;20035;-67
2023/06/16 02:37:57;;;;;;;7.45;4.75;;;11.40;99.90;;;;;;5135401;28;20085;-67
2023/06/16 02:40:22;;;;;;;7.93;4.97;;;11.40;99.90;;;;;;5117057;28;20038;-67
2023/06/16 02:42:48;;;;;;;4.90;4.35;;;11.30;99.90;;;;;;5135901;28;20119;-67
2023/06/16 02:45:14;;;;;;;6.78;4.97;;;11.30;99.90;;;;;;5135435;28;20035;-67
2023/06/16 02:47:40;;;;;;;9.75;4.82;;;11.30;99.90;;;;;;5116980;28;20460;-67
2023/06/16 02:50:08;;;;;;;5.03;4.50;;;11.20;99.90;;;;;;5135452;28;20030;-67
2023/06/16 02:52:34;;;;;;;6.78;4.88;;;11.20;99.90;;;;;;5135373;28;20414;-67
2023/06/16 02:55:00;;;;;;;6.50;5.18;;;11.20;99.90;;;;;;5135297;28;20090;-67
2023/06/16 02:57:25;;;;;;;5.03;4.53;;;11.20;99.90;;;;;;5135292;28;20063;-67
2023/06/16 02:59:51;;;;;;;7.80;5.00;;;11.10;99.90;;;;;;5135186;28;20035;-67
2023/06/16 03:02:17;;;;;;;6.95;4.82;;;11.10;99.90;;;;;;5135265;28;20035;-67
2023/06/16 03:04:42;;;;;;;8.82;5.18;;;11.10;99.90;;;;;;5134256;27;20031;-67
2023/06/16 03:07:09;;;;;;;7.95;4.97;;;11.10;99.90;;;;;;5135040;28;20480;-67
2023/06/16 03:09:35;;;;;;;8.32;5.13;;;11.10;99.90;;;;;;5135031;28;20118;-67
2023/06/16 03:12:01;;;;;;;7.55;4.60;;;11.10;99.90;;;;;;5135105;28;20161;-67
2023/06/16 03:14:27;;;;;;;8.60;5.03;;;11.10;99.90;;;;;;5135048;28;20031;-67
2023/06/16 03:16:53;;;;;;;5.10;4.60;;;11.00;99.90;;;;;;5134965;28;20110;-67
2023/06/16 03:19:19;;;;;;;5.35;4.68;;;11.10;99.90;;;;;;5095766;27;1102604;-67
2023/06/16 03:21:44;;;;;;;5.10;4.20;;;11.00;99.90;;;;;;5135776;27;20038;-67
2023/06/16 03:24:13;;;;;;;5.75;4.90;;;11.10;99.90;;;;;;5135916;27;20181;-67
2023/06/16 03:26:39;;;;;;;6.80;5.05;;;11.10;99.90;;;;;;5135814;27;20035;-67
2023/06/16 03:29:06;;;;;;;6.30;4.50;;;11.10;99.90;;;;;;5135491;27;20034;-67
2023/06/16 03:31:32;;;;;;;6.57;4.97;;;11.10;99.90;;;;;;5135612;27;20088;-71
2023/06/16 03:33:58;;;;;;;10.43;4.95;;;11.10;99.90;;;;;;5135510;27;20031;-67
2023/06/16 03:36:24;;;;;;;8.98;4.55;;;11.20;99.90;;;;;;5117406;27;20035;-67
2023/06/16 03:38:50;;;;;;;5.78;5.13;;;11.20;99.90;;;;;;5135315;27;20023;-67
2023/06/16 03:41:15;;;;;;;9.77;5.05;;;11.30;99.90;;;;;;5134958;27;20034;-67
2023/06/16 03:43:41;;;;;;;5.90;4.50;;;11.30;99.90;;;;;;5135334;27;20039;-67
2023/06/16 03:46:07;;;;;;;5.45;4.38;;;11.30;99.90;;;;;;5135427;27;20065;-67
2023/06/16 03:48:33;;;;;;;9.15;4.28;;;11.30;99.90;;;;;;5116786;27;20035;-67
2023/06/16 03:50:58;;;;;;;5.35;4.80;;;11.40;99.90;;;;;;5135264;27;20052;-67
2023/06/16 03:53:24;;;;;;;5.97;4.88;;;11.40;99.90;;;;;;5135486;27;20429;-67
2023/06/16 03:55:50;;;;;;;8.73;4.90;;;11.40;99.90;;;;;;5135113;27;20042;-67
2023/06/16 03:58:16;;;;;;;6.35;4.22;;;11.50;99.90;;;;;;5116388;27;20027;-67
2023/06/16 04:00:43;;;;;;;6.35;4.53;;;11.50;99.90;;;;;;5116572;27;20035;-67
2023/06/16 04:03:09;;;;;;;5.38;4.65;;;11.60;99.90;;;;;;5116549;27;20117;-67
2023/06/16 04:05:35;;;;;;;8.82;4.93;;;11.60;99.90;;;;;;5118282;27;20054;-75
2023/06/16 04:08:01;;;;;;;5.75;4.50;;;11.70;99.90;;;;;;5117613;27;20472;-71
2023/06/16 04:10:27;;;;;;;8.52;3.80;;;11.70;99.90;;;;;;5116840;27;20035;-72
2023/06/16 04:12:53;;;;;;;6.47;4.47;;;11.80;99.90;;;;;;5116820;27;20125;-71
2023/06/16 04:15:19;;;;;;;9.48;5.10;;;11.80;99.90;;;;;;5134743;27;20031;-73
2023/06/16 04:17:45;;;;;;;6.63;4.22;;;11.90;99.90;;;;;;5134766;27;20106;-72
2023/06/16 04:20:12;;;;;;;5.00;4.07;;;11.90;99.90;;;;;;5134718;27;20545;-68
2023/06/16 04:22:38;;;;;;;5.57;4.03;;;12.00;99.90;;;;;;5134198;27;20434;-68
2023/06/16 04:25:05;;;;;;;13.35;4.75;;;12.00;99.90;;;;;;5116180;28;20035;-68
2023/06/16 04:27:32;;;;;;;5.25;4.28;;;12.10;99.90;;;;;;5116166;28;20388;-68
2023/06/16 04:29:57;;;;;;;11.98;4.45;;;12.20;99.90;;;;;;5134549;28;20122;-68
2023/06/16 04:32:23;;;;;;;8.13;4.07;;;12.30;99.90;;;;;;5134274;28;20081;-67
2023/06/16 04:34:49;;;;;;;7.07;4.30;;;12.40;99.90;;;;;;5134325;28;20488;-67
2023/06/16 04:37:16;;;;;;;10.90;4.68;;;12.50;99.90;;;;;;5134384;28;20472;-67
2023/06/16 04:39:42;;;;;;;6.30;4.18;;;12.50;99.90;;;;;;5134628;28;20065;-67
2023/06/16 04:42:09;;;;;;;7.90;4.55;;;12.60;99.90;;;;;;5134738;28;20066;-67
2023/06/16 04:44:35;;;;;;;8.15;4.22;;;12.70;99.90;;;;;;5115924;28;20512;-67
2023/06/16 04:47:02;;;;;;;5.75;4.93;;;12.90;99.90;;;;;;5134250;28;20034;-72
2023/06/16 04:49:27;;;;;;;4.97;4.43;;;12.90;99.90;;;;;;5134389;28;20035;-72
2023/06/16 04:51:53;;;;;;;9.10;4.72;;;13.00;99.90;;;;;;5115915;28;20345;-67
2023/06/16 04:54:19;;;;;;;5.30;3.97;;;13.10;99.90;;;;;;5134341;28;20065;-67
2023/06/16 04:56:47;;;;;;;7.28;3.97;;;13.20;99.90;;;;;;5134267;28;20388;-67
2023/06/16 04:59:13;;;;;;;10.77;5.75;;;13.40;99.90;;;;;;5115900;28;20480;-67
2023/06/16 05:01:39;;;;;;;4.43;3.53;;;13.50;99.90;;;;;;5134247;28;20031;-67
2023/06/16 05:04:05;;;;;;;4.60;3.65;;;13.60;99.90;;;;;;5134225;28;20035;-67
2023/06/16 05:06:37;;;;;;;7.65;4.00;;;13.80;99.90;;;;;;5133923;28;20038;-67
2023/06/16 05:09:04;;;;;;;4.20;3.63;;;13.90;99.90;;;;;;5134105;28;20039;-67
2023/06/16 05:11:30;;;;;;;6.15;3.60;;;14.10;99.90;;;;;;5115908;28;20036;-67
2023/06/16 05:13:55;;;;;;;4.57;3.78;;;14.40;99.90;;;;;;5115367;28;20057;-67
2023/06/16 05:16:21;;;;;;;6.18;3.55;;;14.50;99.90;;;;;;5134412;28;20031;-67
2023/06/16 05:18:47;;;;;;;4.35;3.30;;;14.70;99.90;;;;;;5115227;28;20038;-68
2023/06/16 05:21:24;;;;;;;4.95;3.25;;;14.90;99.90;;;;;;5115511;28;20039;-67
2023/06/16 05:23:53;;;;;;;4.68;3.65;;;15.10;99.90;;;;;;5115577;28;20496;-67
2023/06/16 05:26:22;;;;;;;6.40;3.35;;;15.20;99.90;;;;;;5134072;28;20031;-67
2023/06/16 05:28:48;;;;;;;5.00;3.58;;;15.40;99.90;;;;;;5136016;27;20085;-67
2023/06/16 05:31:14;;;;;;;4.95;3.60;;;15.50;99.90;;;;;;5137460;27;20080;-67
2023/06/16 05:33:40;;;;;;;3.65;2.90;;;15.70;99.90;;;;;;5137711;27;20035;-67
2023/06/16 05:36:05;;;;;;;4.25;3.20;;;15.70;99.90;;;;;;5137663;27;20038;-67
2023/06/16 05:38:31;;;;;;;7.20;3.25;;;15.90;99.90;;;;;;5137486;27;20472;-67
2023/06/16 05:40:57;;;;;;;7.15;3.38;;;16.00;99.90;;;;;;5137590;27;20038;-67
2023/06/16 05:43:22;;;;;;;3.88;2.80;;;16.10;99.90;;;;;;5137566;27;20039;-67
2023/06/16 05:45:48;;;;;;;4.22;2.97;;;16.20;99.90;;;;;;5137257;27;20043;-67
2023/06/16 05:48:13;;;;;;;6.43;3.00;;;16.30;99.90;;;;;;5137179;27;20088;-67
2023/06/16 05:50:40;;;;;;;3.55;3.25;;;16.40;99.90;;;;;;5119085;27;20034;-67
2023/06/16 05:53:05;;;;;;;7.28;3.38;;;16.50;99.90;;;;;;5137370;27;20074;-67
2023/06/16 05:55:31;;;;;;;4.57;2.80;;;16.60;99.90;;;;;;5137280;27;20032;-67
2023/06/16 05:57:57;;;;;;;3.42;3.00;;;16.70;99.90;;;;;;5118975;27;20038;-67
2023/06/16 06:00:23;;;;;;;3.22;2.92;;;16.80;99.90;;;;;;5118823;27;20031;-67
2023/06/16 06:02:48;;;;;;;5.78;3.10;;;16.90;99.90;;;;;;5137072;27;20031;-67
2023/06/16 06:05:15;;;;;;;7.25;3.08;;;17.00;99.90;;;;;;5137418;27;20039;-67
2023/06/16 06:07:41;;;;;;;10.07;3.38;;;17.10;99.90;;;;;;5137008;27;20032;-67
2023/06/16 06:10:06;;;;;;;4.60;3.47;;;17.20;99.90;;;;;;5118295;27;20084;-67
2023/06/16 06:12:32;;;;;;;4.63;3.03;;;17.30;99.90;;;;;;5118528;27;20160;-67
2023/06/16 06:14:58;;;;;;;3.85;3.20;;;17.50;99.90;;;;;;5136642;27;20094;-68
2023/06/16 06:17:24;;;;;;;5.13;2.70;;;17.60;99.90;;;;;;5118463;27;20034;-67
2023/06/16 06:19:49;;;;;;;3.95;2.83;;;17.90;99.90;;;;;;5136854;27;20059;-68
2023/06/16 06:22:15;;;;;;;5.15;3.05;;;18.40;99.90;;;;;;5136607;27;20037;-68
2023/06/16 06:24:41;;;;;;;3.28;2.17;;;18.80;99.90;;;;;;5118786;27;20080;-67
2023/06/16 06:27:10;;;;;;;3.05;2.40;;;19.30;99.90;;;;;;5136581;27;20122;-68
2023/06/16 06:29:36;;;;;;;3.15;2.47;;;19.60;99.90;;;;;;5136560;27;20037;-68
2023/06/16 06:32:04;;;;;;;2.67;2.42;;;19.90;99.90;;;;;;5136571;27;20040;-67
2023/06/16 06:34:30;;;;;;;3.93;2.70;;;20.10;99.90;;;;;;5136209;27;20364;-68
2023/06/16 06:36:56;;;;;;;4.78;2.40;;;20.40;99.90;;;;;;5136105;27;20383;-68
2023/06/16 06:39:21;;;;;;;3.78;2.90;;;20.50;99.70;;;;;;5135508;27;20031;-68
2023/06/16 06:41:47;;;;;;;2.83;2.60;;;20.60;99.50;;;;;;5135838;27;20106;-68
2023/06/16 06:44:12;;;;;;;2.95;2.58;;;20.80;98.70;;;;;;5117971;27;20031;-68
2023/06/16 06:46:38;;;;;;;3.28;2.28;;;20.80;98.10;;;;;;5136501;27;20028;-68
2023/06/16 06:49:04;;;;;;;3.15;2.63;;;20.90;98.00;;;;;;5135958;27;20046;-67
2023/06/16 06:51:29;;;;;;;3.38;2.15;;;21.20;97.50;;;;;;5135894;27;20031;-68
2023/06/16 06:53:55;;;;;;;5.07;2.60;;;21.60;97.00;;;;;;5136419;27;20031;-68
2023/06/16 06:56:22;;;;;;;2.55;2.35;;;21.80;95.30;;;;;;5136105;27;20057;-67
2023/06/16 06:58:48;;;;;;;3.25;2.47;;;21.60;94.20;;;;;;5117309;27;20122;-68
2023/06/16 07:01:14;;;;;;;3.83;2.85;;;21.30;94.70;;;;;;5136170;27;20118;-68
2023/06/16 07:03:39;;;;;;;4.05;2.45;;;21.20;94.80;;;;;;5117585;27;20051;-69
2023/06/16 07:06:05;;;;;;;3.25;2.30;;;21.10;95.10;;;;;;5117377;27;20460;-69
2023/06/16 07:08:31;;;;;;;3.33;2.50;;;21.20;94.60;;;;;;5136355;27;20452;-68
2023/06/16 07:10:58;;;;;;;4.00;2.60;;;21.30;95.00;;;;;;5135742;27;20042;-67
2023/06/16 07:13:24;;;;;;;4.45;2.78;;;21.50;95.10;;;;;;5117347;27;20449;-68
2023/06/16 07:15:50;;;;;;;2.78;2.33;;;21.60;94.00;;;;;;5117760;27;20114;-67
2023/06/16 07:18:15;;;;;;;3.50;2.70;;;21.70;93.90;;;;;;5117355;27;20388;-67
2023/06/16 07:20:41;;;;;;;3.42;3.13;;;21.90;93.60;;;;;;5135784;27;20115;-66
2023/06/16 07:23:07;;;;;;;4.88;3.10;;;21.80;94.00;;;;;;5135650;27;20121;-67
2023/06/16 07:25:36;;;;;;;4.22;2.70;;;22.00;93.40;;;;;;5135239;27;20499;-67
2023/06/16 07:28:02;;;;;;;;;;;22.20;93.00;;;;;;5135903;27;20062;-67
2023/06/16 07:30:27;;;;;;;3.85;2.58;;;22.20;91.20;;;;;;5117013;27;19907;-67
2023/06/16 07:32:53;;;;;;;4.43;2.55;;;22.40;91.50;;;;;;5135392;27;20027;-67
2023/06/16 07:35:19;;;;;;;3.58;2.33;;;22.30;90.90;;;;;;5116870;27;20037;-67
2023/06/16 07:37:45;;;;;;;5.38;2.83;;;22.30;90.90;;;;;;5117119;27;20050;-68
2023/06/16 07:40:13;;;;;;;3.25;2.50;;;22.40;91.00;;;;;;5135032;27;20035;-67
2023/06/16 07:42:44;;;;;;;5.88;2.78;;;22.90;90.80;;;;;;5135255;27;20034;-68
2023/06/16 07:45:10;;;;;;;6.47;3.00;;;23.30;87.70;;;;;;5135203;27;20027;-69
2023/06/16 07:47:35;;;;;;;3.35;2.70;;;23.50;86.60;;;;;;5116692;27;20035;-67
2023/06/16 07:50:01;;;;;;;5.72;2.60;;;23.70;84.90;;;;;;5134787;27;20031;-70
2023/06/16 07:52:27;;;;;;;3.00;2.80;;;23.90;83.20;;;;;;5134795;27;20474;-69
2023/06/16 07:54:52;;;;;;;3.53;3.10;;;23.80;82.90;;;;;;5135351;27;20380;-67
2023/06/16 07:57:18;;;;;;;3.47;2.63;;;23.60;82.20;;;;;;5134676;27;20108;-68
2023/06/16 07:59:43;;;;;;;3.03;2.78;;;23.70;82.80;;;;;;5134693;27;20027;-67
2023/06/16 08:02:09;;;;;;;2.95;2.65;;;23.80;80.70;;;;;;5134835;27;20039;-67
2023/06/16 08:04:35;;;;;;;3.80;2.67;;;23.80;80.60;;;;;;5116532;27;20070;-68
2023/06/16 08:07:01;;;;;;;4.45;2.30;;;23.80;79.50;;;;;;5135339;27;20035;-68
2023/06/16 08:09:26;;;;;;;3.60;2.80;;;24.00;80.30;;;;;;5135012;27;20027;-69
2023/06/16 08:11:52;;;;;;;4.60;3.00;;;24.00;77.50;;;;;;5134821;27;20043;-69
2023/06/16 08:14:18;;;;;;;3.80;2.95;;;24.20;76.90;;;;;;5134751;27;20038;-69
2023/06/16 08:16:43;;;;;;;3.40;2.53;;;24.10;76.70;;;;;;5134717;27;20023;-69
2023/06/16 08:19:09;;;;;;;6.57;3.13;;;24.20;74.50;;;;;;5134448;27;20043;-67
2023/06/16 08:21:37;;;;;;;5.22;2.90;;;24.10;76.90;;;;;;5134611;27;20453;-68
2023/06/16 08:24:03;;;;;;;3.15;2.80;;;24.30;75.60;;;;;;5134648;27;20073;-69
2023/06/16 08:26:29;;;;;;;4.60;2.92;;;24.60;72.30;;;;;;5134944;28;20053;-67
2023/06/16 08:28:55;;;;;;;3.63;2.65;;;24.40;71.80;;;;;;5134663;28;20027;-67
2023/06/16 08:31:21;;;;;;;3.00;2.80;;;24.50;72.10;;;;;;5134750;28;20019;-67
2023/06/16 08:33:47;;;;;;;14.00;3.28;;;24.60;73.10;;;;;;5134601;28;20058;-67
2023/06/16 08:36:12;;;;;;;2.88;2.65;;;25.10;71.20;;;;;;5116427;28;20038;-67
2023/06/16 08:38:38;;;;;;;4.20;2.75;;;25.50;70.60;;;;;;5134418;28;20365;-67
2023/06/16 08:41:08;;;;;;;4.13;2.90;;;25.80;68.10;;;;;;5134618;28;20124;-67
2023/06/16 08:43:37;;;;;;;6.72;2.97;;;26.00;67.50;;;;;;5134459;28;20031;-70
2023/06/16 08:46:08;;;;;;;4.53;2.70;;;26.00;67.20;;;;;;5134488;28;20034;-70
2023/06/16 08:48:36;;;;;;;5.20;2.90;;;26.10;65.70;;;;;;5116175;28;20084;-70
2023/06/16 08:51:04;;;;;;;6.28;3.10;;;26.00;64.40;;;;;;5134186;28;20035;-69
2023/06/16 08:53:33;;;;;;;5.82;2.72;;;26.00;64.40;;;;;;5134541;28;20066;-68
2023/06/16 08:56:00;;;;;;;8.05;2.90;;;25.90;62.30;;;;;;5115899;28;20387;-69
2023/06/16 08:58:27;;;;;;;3.38;2.60;;;25.80;61.00;;;;;;5134648;28;20024;-68
2023/06/16 09:00:53;;;;;;;7.88;2.88;;;25.50;61.70;;;;;;5115883;28;20035;-68
2023/06/16 09:03:19;;;;;;;4.85;2.78;;;25.60;62.50;;;;;;5135580;27;20035;-68
2023/06/16 09:05:46;;;;;;;3.45;2.70;;;25.90;61.70;;;;;;5138267;27;20124;-68
2023/06/16 09:08:12;;;;;;;4.88;2.28;;;26.00;60.90;;;;;;5138240;27;20031;-68
2023/06/16 09:10:37;;;;;;;4.68;2.65;;;25.90;59.90;;;;;;5138453;27;20409;-68
2023/06/16 09:13:03;;;;;;;5.63;2.63;;;25.90;59.30;;;;;;5119745;27;20480;-68
2023/06/16 09:15:29;;;;;;;2.83;2.63;;;26.50;58.90;;;;;;5138117;27;20358;-68
2023/06/16 09:17:56;;;;;;;5.57;2.92;;;26.90;57.50;;;;;;5138364;27;20377;-68
2023/06/16 09:20:25;;;;;;;2.85;2.47;;;27.00;56.40;;;;;;5119328;27;20049;-69
2023/06/16 09:23:04;;;;;;;4.35;2.50;;;26.80;56.90;;;;;;5137943;27;20072;-68
2023/06/16 09:25:34;;;;;;;3.90;2.40;;;26.60;56.10;;;;;;5137599;27;20503;-67
2023/06/16 09:28:07;;;;;;;3.53;2.63;;;26.40;57.10;;;;;;5119390;27;20468;-68
2023/06/16 09:30:33;;;;;;;5.05;2.60;;;27.10;56.10;;;;;;5138026;27;20031;-68
2023/06/16 09:33:00;;;;;;;7.03;2.90;;;27.90;55.60;;;;;;5137846;27;20027;-70
2023/06/16 09:35:26;;;;;;;3.08;2.50;;;28.40;53.90;;;;;;5119348;27;20084;-68
2023/06/16 09:37:55;;;;;;;5.53;2.70;;;29.10;51.40;;;;;;5119544;27;20031;-70
2023/06/16 09:40:29;;;;;;;6.93;2.90;;;29.70;51.30;;;;;;5119510;27;20384;-68
2023/06/16 09:42:58;;;;;;;5.43;3.00;;;30.00;49.60;;;;;;5137597;27;20468;-68
2023/06/16 09:45:29;;;;;;;5.05;2.80;;;30.30;48.50;;;;;;5119180;27;20062;-68
2023/06/16 09:47:55;;;;;;;4.20;2.65;;;30.20;47.90;;;;;;5137619;27;20031;-68
2023/06/16 09:50:26;;;;;;;2.97;2.45;;;29.80;47.40;;;;;;5118963;27;20070;-68
2023/06/16 09:52:53;;;;;;;4.03;2.88;;;29.20;48.60;;;;;;5137525;27;20376;-68
2023/06/16 09:55:20;;;;;;;6.00;2.88;;;29.20;48.90;;;;;;5137397;27;20489;-68
2023/06/16 09:57:47;;;;;;;6.07;2.72;;;29.00;49.50;;;;;;5137243;27;20036;-68
2023/06/16 10:00:17;;;;;;;4.57;2.83;;;28.70;48.60;;;;;;5137268;27;20042;-68
2023/06/16 10:02:45;;;;;;;2.97;2.50;;;28.50;48.10;;;;;;5136764;27;20541;-68
2023/06/16 10:05:17;;;;;;;5.50;2.55;;;28.30;48.00;;;;;;5137231;27;20031;-68
2023/06/16 10:07:48;;;;;;;3.13;2.40;;;27.90;48.10;;;;;;5137449;27;20092;-68
2023/06/16 10:10:15;;;;;;;2.88;2.55;;;28.10;49.00;;;;;;5137333;27;20430;-68
2023/06/16 10:12:46;;;;;;;2.88;2.10;;;28.60;48.50;;;;;;5137172;27;20498;-68
2023/06/16 10:15:30;;;;;;;9.57;2.95;;;29.20;49.00;;;;;;5137100;27;20063;-68
2023/06/16 10:18:03;;;;;;;2.90;2.70;;;29.30;45.50;;;;;;5137155;27;20371;-69
2023/06/16 10:20:32;;;;;;;4.05;2.58;;;29.70;45.60;;;;;;5137169;27;20108;-69
2023/06/16 10:23:00;;;;;;;2.72;2.50;;;30.00;44.00;;;;;;5118735;27;20100;-68
2023/06/16 10:25:25;;;;;;;5.13;2.57;;;29.60;43.60;;;;;;5118372;27;20403;-68
2023/06/16 10:27:52;;;;;;;3.20;2.90;;;29.40;44.70;;;;;;5118207;27;20038;-68
2023/06/16 10:30:19;;;;;;;5.57;2.70;;;29.50;44.80;;;;;;5136321;27;20027;-68
2023/06/16 10:32:55;;;;;;;2.65;2.25;;;29.10;44.20;;;;;;5136960;27;20095;-68
2023/06/16 10:35:22;;;;;;;3.88;2.55;;;28.60;43.90;;;;;;5136536;27;20061;-69
2023/06/16 10:37:55;;;;;;;4.25;2.90;;;28.90;44.10;;;;;;5136790;27;20082;-68
2023/06/16 10:40:22;;;;;;;2.67;2.20;;;28.80;40.30;;;;;;5136433;27;20076;-69
2023/06/16 10:42:56;;;;;;;5.35;2.90;;;28.40;43.00;;;;;;5136244;27;20035;-69
2023/06/16 10:45:25;;;;;;;4.43;2.30;;;28.70;42.10;;;;;;5136646;27;20096;-69
2023/06/16 10:48:03;;;;;;;2.83;2.55;;;29.10;42.70;;;;;;5136356;27;20027;-69
2023/06/16 10:50:58;;;;;;;6.97;3.05;;;29.00;44.30;;;;;;5136461;27;20028;-67
2023/06/16 10:53:24;;;;;;;6.75;3.00;;;29.70;42.70;;;;;;5136534;27;20506;-69
2023/06/16 10:56:05;;;;;;;4.78;2.92;;;30.00;42.00;;;;;;5136075;27;20039;-68
2023/06/16 10:58:32;;;;;;;4.75;2.55;;;29.80;42.40;;;;;;5135997;27;20031;-68
2023/06/16 11:01:01;;;;;;;4.80;3.10;;;30.10;42.40;;;;;;5118090;27;20066;-68
2023/06/16 11:03:34;;;;;;;;;;;30.00;41.40;;;;;;5136284;27;20046;-67
2023/06/16 11:06:01;;;;;;;7.45;2.67;;;29.80;41.20;;;;;;5117298;27;19998;-69
2023/06/16 11:08:30;;;;;;;7.00;3.28;;;29.70;42.10;;;;;;5135709;27;20200;-68
2023/06/16 11:11:05;;;;;;;3.25;2.90;;;29.50;43.00;;;;;;5136104;27;20032;-68
2023/06/16 11:13:35;;;;;;;3.00;2.55;;;29.50;43.50;;;;;;5135788;27;20102;-67
2023/06/16 11:16:01;;;;;;;2.83;2.63;;;29.50;44.00;;;;;;5135787;27;20118;-68
2023/06/16 11:18:29;;;;;;;3.35;2.80;;;29.30;43.20;;;;;;5135686;27;20023;-68
2023/06/16 11:20:56;;;;;;;7.40;2.80;;;29.40;43.90;;;;;;5135554;27;20043;-68
2023/06/16 11:23:22;;;;;;;4.85;2.88;;;29.90;43.00;;;;;;5135612;27;20142;-69
2023/06/16 11:25:50;;;;;;;5.88;2.90;;;30.20;41.30;;;;;;5135008;27;20496;-70
2023/06/16 11:28:21;;;;;;;6.88;3.10;;;30.90;42.20;;;;;;5135617;27;20062;-69
2023/06/16 11:30:48;;;;;;;4.65;2.78;;;31.40;42.00;;;;;;5135522;27;20055;-68
2023/06/16 11:33:16;;;;;;;3.13;2.65;;;31.60;42.00;;;;;;5135400;27;20032;-69
2023/06/16 11:35:42;;;;;;;5.72;3.20;;;31.90;41.40;;;;;;5135299;27;20027;-69
2023/06/16 11:38:08;;;;;;;2.97;2.65;;;32.60;40.20;;;;;;5135512;27;20091;-69
2023/06/16 11:40:35;;;;;;;5.15;2.58;;;32.70;38.80;;;;;;5135407;27;20077;-69
2023/06/16 11:43:03;;;;;;;5.35;3.10;;;32.50;40.00;;;;;;5135201;27;20357;-69
2023/06/16 11:45:38;;;;;;;5.30;3.30;;;31.90;39.40;;;;;;5135203;27;20039;-69
2023/06/16 11:48:07;;;;;;;5.30;2.88;;;31.40;40.40;;;;;;5135549;27;20403;-68
2023/06/16 11:50:33;;;;;;;8.75;2.97;;;31.30;40.60;;;;;;5135096;27;20126;-68
2023/06/16 11:52:58;;;;;;;5.65;3.20;;;32.20;40.10;;;;;;5135099;27;20031;-69
2023/06/16 11:55:25;;;;;;;6.03;2.70;;;32.70;39.80;;;;;;5117086;27;20034;-69
2023/06/16 11:57:51;;;;;;;4.63;3.05;;;32.80;38.70;;;;;;5134863;27;20023;-68
2023/06/16 12:00:18;;;;;;;3.33;3.03;;;31.90;38.10;;;;;;5135112;27;20361;-70
2023/06/16 12:02:47;;;;;;;7.60;2.85;;;30.70;40.10;;;;;;5134852;27;20036;-68
2023/06/16 12:05:30;;;;;;;4.72;2.83;;;29.80;42.10;;;;;;5116380;27;20041;-68
2023/06/16 12:07:55;;;;;;;3.50;2.67;;;29.10;44.00;;;;;;5135011;27;20114;-70
2023/06/16 12:10:24;;;;;;;3.33;3.10;;;28.50;45.70;;;;;;5134531;27;20106;-68
2023/06/16 12:12:50;;;;;;;;;;;27.50;47.60;;;;;;5135386;27;20035;-68
2023/06/16 12:15:17;;;;;;;3.50;2.95;;;26.50;49.10;;;;;;5134622;27;19904;-67
2023/06/16 12:17:43;;;;;;;5.90;3.20;;;25.80;49.10;;;;;;5134411;27;20396;-68
2023/06/16 12:20:13;;;;;;;6.50;3.50;;;25.30;51.50;;;;;;5134846;27;20047;-67
2023/06/16 12:22:39;;;;;;;5.57;3.47;;;25.20;51.70;;;;;;5134934;27;20118;-69
2023/06/16 12:25:16;;;;;;;7.18;3.63;;;25.30;50.90;;;;;;5134664;27;20547;-69
2023/06/16 12:27:45;;;;;;;5.30;3.50;;;25.60;50.70;;;;;;5134667;28;20039;-67
2023/06/16 12:30:14;;;;;;;4.70;3.67;;;26.50;49.90;;;;;;5134650;28;20353;-69
2023/06/16 12:32:41;;;;;;;10.35;3.65;;;28.00;49.40;;;;;;5134968;28;20472;-70
2023/06/16 12:35:08;;;;;;;4.60;3.17;;;29.30;47.40;;;;;;5134518;28;20027;-68
2023/06/16 12:37:34;;;;;;;4.53;3.17;;;29.60;43.70;;;;;;5134436;27;20372;-70
2023/06/16 12:40:10;;;;;;;4.93;3.30;;;29.40;44.50;;;;;;5139092;27;20030;-68
2023/06/16 12:42:36;;;;;;;7.30;3.28;;;30.10;43.30;;;;;;5138733;27;20465;-68
2023/06/16 12:45:05;;;;;;;5.20;3.00;;;30.30;43.10;;;;;;5120260;27;20035;-68
2023/06/16 12:47:32;;;;;;;6.65;3.15;;;29.90;42.20;;;;;;5138703;27;20024;-68
2023/06/16 12:49:59;;;;;;;4.15;3.15;;;29.70;42.40;;;;;;5120327;27;20035;-72